sensor_id;sensor_type;location;lat;lon;timestamp;pressure;altitude;pressure_sealevel;temperature;humidity
35908;BME280;22003;50.320;8.054;2024-03-08T00:01:55;99670.50;;;1.78;80.94
35908;BME280;22003;50.320;8.054;2024-03-08T00:04:20;99779.41;;;2.37;80.45
35908;BME280;22003;50.320;8.054;2024-03-08T00:06:45;99783.97;;;2.32;79.76
35908;BME280;22003;50.320;8.054;2024-03-08T00:09:11;99779.16;;;2.03;81.10
35908;BME280;22003;50.320;8.054;2024-03-08T00:11:37;99815.28;;;1.93;82.02
35908;BME280;22003;50.320;8.054;2024-03-08T00:14:02;99631.19;;;1.20;81.39
35908;BME280;22003;50.320;8.054;2024-03-08T00:16:32;99747.75;;;1.84;81.47
35908;BME280;22003;50.320;8.054;2024-03-08T00:18:57;99777.41;;;2.24;80.14
35908;BME280;22003;50.320;8.054;2024-03-08T00:21:22;99769.03;;;2.16;80.35
35908;BME280;22003;50.320;8.054;2024-03-08T00:23:47;99763.69;;;1.98;80.70
35908;BME280;22003;50.320;8.054;2024-03-08T00:26:13;99769.38;;;2.28;80.29
35908;BME280;22003;50.320;8.054;2024-03-08T00:28:38;99766.94;;;2.24;79.97
35908;BME280;22003;50.320;8.054;2024-03-08T00:31:03;99755.13;;;2.54;79.55
35908;BME280;22003;50.320;8.054;2024-03-08T00:33:29;99759.13;;;2.43;79.13
35908;BME280;22003;50.320;8.054;2024-03-08T00:35:54;99761.19;;;2.36;78.88
35908;BME280;22003;50.320;8.054;2024-03-08T00:38:19;99763.88;;;2.53;78.85
35908;BME280;22003;50.320;8.054;2024-03-08T00:40:45;99765.75;;;2.31;79.40
35908;BME280;22003;50.320;8.054;2024-03-08T00:43:10;99769.03;;;2.36;79.24
35908;BME280;22003;50.320;8.054;2024-03-08T00:45:36;99754.06;;;2.40;78.32
35908;BME280;22003;50.320;8.054;2024-03-08T00:48:02;99753.72;;;2.27;78.22
35908;BME280;22003;50.320;8.054;2024-03-08T00:50:28;99757.69;;;1.96;80.13
35908;BME280;22003;50.320;8.054;2024-03-08T00:52:53;99746.69;;;1.88;80.84
35908;BME280;22003;50.320;8.054;2024-03-08T00:55:19;99753.75;;;1.86;80.83
35908;BME280;22003;50.320;8.054;2024-03-08T00:57:44;99750.03;;;2.12;79.91
35908;BME280;22003;50.320;8.054;2024-03-08T01:00:10;99747.53;;;1.89;80.17
35908;BME280;22003;50.320;8.054;2024-03-08T01:02:38;99742.84;;;1.76;81.03
35908;BME280;22003;50.320;8.054;2024-03-08T01:05:05;99744.69;;;1.95;81.04
35908;BME280;22003;50.320;8.054;2024-03-08T01:07:34;99740.50;;;1.91;80.28
35908;BME280;22003;50.320;8.054;2024-03-08T01:10:00;99741.19;;;1.94;80.35
35908;BME280;22003;50.320;8.054;2024-03-08T01:12:26;99736.94;;;1.71;80.80
35908;BME280;22003;50.320;8.054;2024-03-08T01:14:51;99726.06;;;1.62;81.88
35908;BME280;22003;50.320;8.054;2024-03-08T01:17:16;99728.16;;;1.74;82.10
35908;BME280;22003;50.320;8.054;2024-03-08T01:19:42;99725.28;;;1.80;81.12
35908;BME280;22003;50.320;8.054;2024-03-08T01:22:10;99729.72;;;1.57;81.74
35908;BME280;22003;50.320;8.054;2024-03-08T01:24:35;99738.06;;;1.45;82.36
35908;BME280;22003;50.320;8.054;2024-03-08T01:27:00;99734.09;;;1.35;82.42
35908;BME280;22003;50.320;8.054;2024-03-08T01:29:26;99725.69;;;1.28;83.01
35908;BME280;22003;50.320;8.054;2024-03-08T01:31:52;99720.19;;;1.56;82.55
35908;BME280;22003;50.320;8.054;2024-03-08T01:34:17;99709.13;;;1.50;82.50
35908;BME280;22003;50.320;8.054;2024-03-08T01:36:42;99702.34;;;1.46;82.80
35908;BME280;22003;50.320;8.054;2024-03-08T01:39:08;99694.19;;;1.74;82.13
35908;BME280;22003;50.320;8.054;2024-03-08T01:41:34;99720.63;;;1.66;81.74
35908;BME280;22003;50.320;8.054;2024-03-08T01:44:01;99701.25;;;1.51;81.80
35908;BME280;22003;50.320;8.054;2024-03-08T01:46:26;99691.31;;;1.39;82.11
35908;BME280;22003;50.320;8.054;2024-03-08T01:48:54;99702.16;;;1.50;81.91
35908;BME280;22003;50.320;8.054;2024-03-08T01:51:19;99693.38;;;1.31;82.57
35908;BME280;22003;50.320;8.054;2024-03-08T01:53:55;99703.50;;;1.39;83.56
35908;BME280;22003;50.320;8.054;2024-03-08T01:56:23;99609.09;;;0.87;83.13
35908;BME280;22003;50.320;8.054;2024-03-08T01:58:49;99699.28;;;1.14;84.03
35908;BME280;22003;50.320;8.054;2024-03-08T02:01:15;99681.19;;;1.10;84.55
35908;BME280;22003;50.320;8.054;2024-03-08T02:03:40;99683.81;;;1.10;85.40
35908;BME280;22003;50.320;8.054;2024-03-08T02:06:06;99691.03;;;1.03;85.61
35908;BME280;22003;50.320;8.054;2024-03-08T02:08:35;99683.13;;;0.83;85.15
35908;BME280;22003;50.320;8.054;2024-03-08T02:11:00;99681.16;;;0.67;86.09
35908;BME280;22003;50.320;8.054;2024-03-08T02:13:27;99683.44;;;0.75;87.01
35908;BME280;22003;50.320;8.054;2024-03-08T02:15:55;99679.13;;;0.52;87.87
35908;BME280;22003;50.320;8.054;2024-03-08T02:18:22;99681.03;;;0.47;88.78
35908;BME280;22003;50.320;8.054;2024-03-08T02:20:49;99674.69;;;0.54;89.16
35908;BME280;22003;50.320;8.054;2024-03-08T02:23:15;99668.44;;;0.58;89.07
35908;BME280;22003;50.320;8.054;2024-03-08T02:25:40;99543.69;;;-0.18;89.21
35908;BME280;22003;50.320;8.054;2024-03-08T02:28:09;99670.16;;;0.59;89.07
35908;BME280;22003;50.320;8.054;2024-03-08T02:30:35;99665.50;;;0.44;89.53
35908;BME280;22003;50.320;8.054;2024-03-08T02:33:01;99674.53;;;0.35;90.09
35908;BME280;22003;50.320;8.054;2024-03-08T02:35:26;99627.19;;;0.24;90.09
35908;BME280;22003;50.320;8.054;2024-03-08T02:37:51;99660.84;;;0.30;89.82
35908;BME280;22003;50.320;8.054;2024-03-08T02:40:16;99662.94;;;0.20;90.31
35908;BME280;22003;50.320;8.054;2024-03-08T02:42:42;99654.97;;;0.47;90.49
35908;BME280;22003;50.320;8.054;2024-03-08T02:45:08;99660.06;;;0.28;90.54
35908;BME280;22003;50.320;8.054;2024-03-08T02:47:35;99647.13;;;0.25;91.10
35908;BME280;22003;50.320;8.054;2024-03-08T02:50:00;99656.69;;;0.24;91.19
35908;BME280;22003;50.320;8.054;2024-03-08T02:52:27;99648.28;;;0.18;91.48
35908;BME280;22003;50.320;8.054;2024-03-08T02:54:52;99649.13;;;0.18;91.60
35908;BME280;22003;50.320;8.054;2024-03-08T02:57:17;99656.78;;;0.23;91.62
35908;BME280;22003;50.320;8.054;2024-03-08T02:59:43;99570.50;;;-0.40;91.55
35908;BME280;22003;50.320;8.054;2024-03-08T03:02:09;99651.78;;;0.17;91.89
35908;BME280;22003;50.320;8.054;2024-03-08T03:04:35;99648.28;;;0.18;92.17
35908;BME280;22003;50.320;8.054;2024-03-08T03:07:00;99648.81;;;0.03;92.03
35908;BME280;22003;50.320;8.054;2024-03-08T03:09:26;99649.75;;;0.02;92.63
35908;BME280;22003;50.320;8.054;2024-03-08T03:11:55;99643.78;;;-0.02;93.03
35908;BME280;22003;50.320;8.054;2024-03-08T03:14:21;99649.06;;;-0.04;93.21
35908;BME280;22003;50.320;8.054;2024-03-08T03:16:47;99643.09;;;-0.07;93.22
35908;BME280;22003;50.320;8.054;2024-03-08T03:19:12;99645.06;;;-0.14;93.81
35908;BME280;22003;50.320;8.054;2024-03-08T03:21:38;99637.31;;;-0.15;93.80
35908;BME280;22003;50.320;8.054;2024-03-08T03:24:03;99536.88;;;-0.69;93.87
35908;BME280;22003;50.320;8.054;2024-03-08T03:26:30;99635.06;;;-0.01;93.54
35908;BME280;22003;50.320;8.054;2024-03-08T03:28:56;99636.72;;;-0.23;93.10
35908;BME280;22003;50.320;8.054;2024-03-08T03:31:22;99633.34;;;-0.50;92.65
35908;BME280;22003;50.320;8.054;2024-03-08T03:33:49;99630.03;;;-0.56;93.84
35908;BME280;22003;50.320;8.054;2024-03-08T03:36:16;99635.47;;;-0.62;94.74
35908;BME280;22003;50.320;8.054;2024-03-08T03:38:43;99567.91;;;-1.15;95.03
35908;BME280;22003;50.320;8.054;2024-03-08T03:41:08;99629.28;;;-0.84;95.47
35908;BME280;22003;50.320;8.054;2024-03-08T03:43:36;99568.56;;;-1.08;95.33
35908;BME280;22003;50.320;8.054;2024-03-08T03:46:07;99630.81;;;-0.52;95.37
35908;BME280;22003;50.320;8.054;2024-03-08T03:48:33;99548.38;;;-1.26;94.57
35908;BME280;22003;50.320;8.054;2024-03-08T03:50:58;99626.03;;;-0.91;95.28
35908;BME280;22003;50.320;8.054;2024-03-08T03:53:23;99614.84;;;-0.93;96.15
35908;BME280;22003;50.320;8.054;2024-03-08T03:55:51;99621.00;;;-0.95;96.60
35908;BME280;22003;50.320;8.054;2024-03-08T03:58:16;99520.75;;;-1.55;96.84
35908;BME280;22003;50.320;8.054;2024-03-08T04:00:47;99612.75;;;-0.82;97.51
35908;BME280;22003;50.320;8.054;2024-03-08T04:03:12;99616.19;;;-0.81;96.72
35908;BME280;22003;50.320;8.054;2024-03-08T04:05:38;99611.94;;;-0.84;97.17
35908;BME280;22003;50.320;8.054;2024-03-08T04:08:04;99609.72;;;-0.94;96.32
35908;BME280;22003;50.320;8.054;2024-03-08T04:10:29;99611.75;;;-1.04;96.86
35908;BME280;22003;50.320;8.054;2024-03-08T04:12:55;99608.31;;;-1.04;97.26
35908;BME280;22003;50.320;8.054;2024-03-08T04:15:22;99615.59;;;-0.89;97.33
35908;BME280;22003;50.320;8.054;2024-03-08T04:17:48;99612.59;;;-1.03;96.57
35908;BME280;22003;50.320;8.054;2024-03-08T04:20:14;99605.25;;;-0.91;96.62
35908;BME280;22003;50.320;8.054;2024-03-08T04:22:39;99599.97;;;-1.14;96.99
35908;BME280;22003;50.320;8.054;2024-03-08T04:25:06;99602.91;;;-0.98;97.66
35908;BME280;22003;50.320;8.054;2024-03-08T04:27:35;99610.22;;;-1.10;98.24
35908;BME280;22003;50.320;8.054;2024-03-08T04:30:01;99543.94;;;-1.49;98.27
35908;BME280;22003;50.320;8.054;2024-03-08T04:32:27;99610.22;;;-0.83;98.76
35908;BME280;22003;50.320;8.054;2024-03-08T04:34:54;99604.78;;;-0.77;97.90
35908;BME280;22003;50.320;8.054;2024-03-08T04:37:19;99605.59;;;-1.01;97.37
35908;BME280;22003;50.320;8.054;2024-03-08T04:39:48;99630.38;;;-1.16;97.78
35908;BME280;22003;50.320;8.054;2024-03-08T04:42:15;99602.28;;;-0.80;97.31
35908;BME280;22003;50.320;8.054;2024-03-08T04:44:41;99594.47;;;-0.80;97.09
35908;BME280;22003;50.320;8.054;2024-03-08T04:47:06;99593.00;;;-1.14;96.80
35908;BME280;22003;50.320;8.054;2024-03-08T04:49:34;99600.00;;;-1.42;97.50
35908;BME280;22003;50.320;8.054;2024-03-08T04:52:04;99602.81;;;-1.22;99.11
35908;BME280;22003;50.320;8.054;2024-03-08T04:54:30;99598.31;;;-1.43;99.32
35908;BME280;22003;50.320;8.054;2024-03-08T04:56:55;99620.31;;;-1.27;99.92
35908;BME280;22003;50.320;8.054;2024-03-08T04:59:21;99582.03;;;-1.22;99.82
35908;BME280;22003;50.320;8.054;2024-03-08T05:01:46;99565.88;;;-1.31;99.79
35908;BME280;22003;50.320;8.054;2024-03-08T05:04:12;99592.41;;;-1.48;100.00
35908;BME280;22003;50.320;8.054;2024-03-08T05:06:38;99592.03;;;-1.10;100.00
35908;BME280;22003;50.320;8.054;2024-03-08T05:09:03;99562.81;;;-1.18;99.97
35908;BME280;22003;50.320;8.054;2024-03-08T05:11:45;99584.91;;;-1.04;99.63
35908;BME280;22003;50.320;8.054;2024-03-08T05:14:11;99563.56;;;-1.14;99.78
35908;BME280;22003;50.320;8.054;2024-03-08T05:16:42;99515.84;;;-1.65;99.90
35908;BME280;22003;50.320;8.054;2024-03-08T05:19:07;99591.31;;;-1.15;100.00
35908;BME280;22003;50.320;8.054;2024-03-08T05:21:32;99581.06;;;-0.93;100.00
35908;BME280;22003;50.320;8.054;2024-03-08T05:23:58;99573.19;;;-1.16;100.00
35908;BME280;22003;50.320;8.054;2024-03-08T05:26:23;99584.16;;;-1.08;100.00
35908;BME280;22003;50.320;8.054;2024-03-08T05:28:48;99579.16;;;-1.14;100.00
35908;BME280;22003;50.320;8.054;2024-03-08T05:31:20;99572.13;;;-1.37;100.00
35908;BME280;22003;50.320;8.054;2024-03-08T05:33:49;99515.09;;;-1.42;100.00
35908;BME280;22003;50.320;8.054;2024-03-08T05:36:15;99567.59;;;-1.06;100.00
35908;BME280;22003;50.320;8.054;2024-03-08T05:38:42;99523.22;;;-1.79;100.00
35908;BME280;22003;50.320;8.054;2024-03-08T05:41:09;99605.09;;;-1.13;100.00
35908;BME280;22003;50.320;8.054;2024-03-08T05:43:34;99550.00;;;-1.24;100.00
35908;BME280;22003;50.320;8.054;2024-03-08T05:45:59;99565.69;;;-1.00;100.00
35908;BME280;22003;50.320;8.054;2024-03-08T05:48:24;99568.41;;;-1.30;100.00
35908;BME280;22003;50.320;8.054;2024-03-08T05:50:50;99573.25;;;-1.46;100.00
35908;BME280;22003;50.320;8.054;2024-03-08T05:53:15;99570.78;;;-1.50;100.00
35908;BME280;22003;50.320;8.054;2024-03-08T05:55:41;99576.91;;;-1.25;100.00
35908;BME280;22003;50.320;8.054;2024-03-08T05:58:06;99571.47;;;-1.44;100.00
35908;BME280;22003;50.320;8.054;2024-03-08T06:00:33;99568.44;;;-1.58;100.00
35908;BME280;22003;50.320;8.054;2024-03-08T06:02:59;99560.09;;;-1.68;100.00
35908;BME280;22003;50.320;8.054;2024-03-08T06:05:24;99575.41;;;-1.32;100.00
35908;BME280;22003;50.320;8.054;2024-03-08T06:07:49;99555.06;;;-1.46;100.00
35908;BME280;22003;50.320;8.054;2024-03-08T06:10:15;99559.28;;;-1.70;100.00
35908;BME280;22003;50.320;8.054;2024-03-08T06:12:42;99556.50;;;-1.64;100.00
35908;BME280;22003;50.320;8.054;2024-03-08T06:15:08;99554.84;;;-1.38;100.00
35908;BME280;22003;50.320;8.054;2024-03-08T06:17:35;99554.50;;;-1.29;100.00
35908;BME280;22003;50.320;8.054;2024-03-08T06:20:01;99559.13;;;-1.37;100.00
35908;BME280;22003;50.320;8.054;2024-03-08T06:22:26;99550.50;;;-1.39;100.00
35908;BME280;22003;50.320;8.054;2024-03-08T06:24:52;99549.63;;;-1.38;100.00
35908;BME280;22003;50.320;8.054;2024-03-08T06:27:19;99551.81;;;-1.26;100.00
35908;BME280;22003;50.320;8.054;2024-03-08T06:29:44;99554.00;;;-1.14;100.00
35908;BME280;22003;50.320;8.054;2024-03-08T06:32:10;99548.88;;;-0.90;100.00
35908;BME280;22003;50.320;8.054;2024-03-08T06:34:35;99478.16;;;-1.25;100.00
35908;BME280;22003;50.320;8.054;2024-03-08T06:37:01;99551.47;;;-0.90;100.00
35908;BME280;22003;50.320;8.054;2024-03-08T06:39:27;99549.00;;;-0.93;100.00
35908;BME280;22003;50.320;8.054;2024-03-08T06:41:53;99553.78;;;-0.81;100.00
35908;BME280;22003;50.320;8.054;2024-03-08T06:44:19;99549.66;;;-0.15;100.00
35908;BME280;22003;50.320;8.054;2024-03-08T06:46:47;99549.13;;;-0.48;100.00
35908;BME280;22003;50.320;8.054;2024-03-08T06:49:13;99543.63;;;-0.40;100.00
35908;BME280;22003;50.320;8.054;2024-03-08T06:51:38;99547.59;;;-0.30;100.00
35908;BME280;22003;50.320;8.054;2024-03-08T06:54:06;99543.63;;;-0.17;99.74
35908;BME280;22003;50.320;8.054;2024-03-08T06:56:33;99542.38;;;-0.07;99.30
35908;BME280;22003;50.320;8.054;2024-03-08T06:58:59;99538.88;;;-0.06;99.54
35908;BME280;22003;50.320;8.054;2024-03-08T07:01:24;99533.31;;;0.04;99.78
35908;BME280;22003;50.320;8.054;2024-03-08T07:03:49;99540.41;;;0.22;99.10
35908;BME280;22003;50.320;8.054;2024-03-08T07:06:17;99544.53;;;0.28;98.98
35908;BME280;22003;50.320;8.054;2024-03-08T07:08:44;99526.00;;;0.35;98.74
35908;BME280;22003;50.320;8.054;2024-03-08T07:11:11;99532.59;;;0.44;98.31
35908;BME280;22003;50.320;8.054;2024-03-08T07:13:37;99536.00;;;0.46;98.48
35908;BME280;22003;50.320;8.054;2024-03-08T07:16:04;99527.50;;;0.63;98.12
35908;BME280;22003;50.320;8.054;2024-03-08T07:18:30;99528.81;;;0.73;97.75
35908;BME280;22003;50.320;8.054;2024-03-08T07:20:56;99520.47;;;1.26;95.53
35908;BME280;22003;50.320;8.054;2024-03-08T07:23:22;99532.38;;;1.13;93.62
35908;BME280;22003;50.320;8.054;2024-03-08T07:26:06;99536.19;;;1.24;93.74
35908;BME280;22003;50.320;8.054;2024-03-08T07:28:31;99523.59;;;1.34;93.22
35908;BME280;22003;50.320;8.054;2024-03-08T07:30:58;99528.75;;;1.36;92.50
35908;BME280;22003;50.320;8.054;2024-03-08T07:33:49;99533.63;;;1.43;92.92
35908;BME280;22003;50.320;8.054;2024-03-08T07:36:15;99515.31;;;1.45;92.95
35908;BME280;22003;50.320;8.054;2024-03-08T07:38:40;99539.53;;;1.67;93.59
35908;BME280;22003;50.320;8.054;2024-03-08T07:41:06;99530.94;;;1.84;93.79
35908;BME280;22003;50.320;8.054;2024-03-08T07:43:31;99514.31;;;2.23;92.68
35908;BME280;22003;50.320;8.054;2024-03-08T07:45:57;99519.88;;;2.34;91.91
35908;BME280;22003;50.320;8.054;2024-03-08T07:48:23;99516.13;;;2.40;92.41
35908;BME280;22003;50.320;8.054;2024-03-08T07:50:48;99512.50;;;2.42;90.78
35908;BME280;22003;50.320;8.054;2024-03-08T07:53:15;99508.31;;;2.57;89.83
35908;BME280;22003;50.320;8.054;2024-03-08T07:55:40;99517.41;;;2.67;89.63
35908;BME280;22003;50.320;8.054;2024-03-08T07:58:07;99398.94;;;2.48;89.79
35908;BME280;22003;50.320;8.054;2024-03-08T08:00:36;99455.94;;;2.58;88.26
35908;BME280;22003;50.320;8.054;2024-03-08T08:03:02;99413.88;;;2.46;86.91
35908;BME280;22003;50.320;8.054;2024-03-08T08:05:27;99497.53;;;3.15;87.62
35908;BME280;22003;50.320;8.054;2024-03-08T08:07:52;99491.94;;;3.38;87.81
35908;BME280;22003;50.320;8.054;2024-03-08T08:10:18;99385.53;;;2.71;87.42
35908;BME280;22003;50.320;8.054;2024-03-08T08:12:47;99490.75;;;3.44;87.11
35908;BME280;22003;50.320;8.054;2024-03-08T08:15:12;99490.56;;;3.64;87.57
35908;BME280;22003;50.320;8.054;2024-03-08T08:17:38;99469.13;;;3.89;86.82
35908;BME280;22003;50.320;8.054;2024-03-08T08:20:04;99479.66;;;3.88;85.39
35908;BME280;22003;50.320;8.054;2024-03-08T08:22:30;99467.34;;;3.90;84.99
35908;BME280;22003;50.320;8.054;2024-03-08T08:24:56;99464.53;;;3.93;84.79
35908;BME280;22003;50.320;8.054;2024-03-08T08:27:21;99460.81;;;4.13;84.21
35908;BME280;22003;50.320;8.054;2024-03-08T08:29:46;99462.75;;;4.09;83.92
35908;BME280;22003;50.320;8.054;2024-03-08T08:32:13;99452.72;;;4.47;83.29
35908;BME280;22003;50.320;8.054;2024-03-08T08:34:38;99445.44;;;4.53;81.53
35908;BME280;22003;50.320;8.054;2024-03-08T08:37:03;99442.41;;;4.74;80.53
35908;BME280;22003;50.320;8.054;2024-03-08T08:39:29;99404.25;;;4.69;78.37
35908;BME280;22003;50.320;8.054;2024-03-08T08:41:54;99440.94;;;4.99;77.44
35908;BME280;22003;50.320;8.054;2024-03-08T08:44:19;99428.28;;;4.91;76.14
35908;BME280;22003;50.320;8.054;2024-03-08T08:46:45;99417.50;;;4.96;75.91
35908;BME280;22003;50.320;8.054;2024-03-08T08:49:10;99388.53;;;4.97;75.81
35908;BME280;22003;50.320;8.054;2024-03-08T08:51:39;99431.28;;;5.14;75.16
35908;BME280;22003;50.320;8.054;2024-03-08T08:54:05;99419.03;;;5.00;74.42
35908;BME280;22003;50.320;8.054;2024-03-08T08:56:31;99420.31;;;5.07;73.55
35908;BME280;22003;50.320;8.054;2024-03-08T08:58:57;99413.31;;;5.22;73.72
35908;BME280;22003;50.320;8.054;2024-03-08T09:01:23;99409.81;;;5.07;73.16
35908;BME280;22003;50.320;8.054;2024-03-08T09:03:48;99422.47;;;5.15;73.38
35908;BME280;22003;50.320;8.054;2024-03-08T09:06:15;99406.94;;;5.12;73.18
35908;BME280;22003;50.320;8.054;2024-03-08T09:08:41;99410.69;;;5.22;73.39
35908;BME280;22003;50.320;8.054;2024-03-08T09:11:07;99389.47;;;5.39;73.35
35908;BME280;22003;50.320;8.054;2024-03-08T09:13:32;99398.81;;;5.43;73.10
35908;BME280;22003;50.320;8.054;2024-03-08T09:15:59;99402.69;;;5.38;72.87
35908;BME280;22003;50.320;8.054;2024-03-08T09:18:24;99396.41;;;5.40;72.27
35908;BME280;22003;50.320;8.054;2024-03-08T09:20:50;99396.34;;;5.69;71.82
35908;BME280;22003;50.320;8.054;2024-03-08T09:23:16;99371.84;;;5.68;72.05
35908;BME280;22003;50.320;8.054;2024-03-08T09:25:44;99381.38;;;5.98;70.49
35908;BME280;22003;50.320;8.054;2024-03-08T09:28:10;99265.59;;;5.18;70.09
35908;BME280;22003;50.320;8.054;2024-03-08T09:30:37;99381.09;;;6.15;70.10
35908;BME280;22003;50.320;8.054;2024-03-08T09:33:03;99378.19;;;6.32;69.14
35908;BME280;22003;50.320;8.054;2024-03-08T09:35:29;99376.09;;;6.25;68.75
35908;BME280;22003;50.320;8.054;2024-03-08T09:37:55;99352.88;;;6.04;68.13
35908;BME280;22003;50.320;8.054;2024-03-08T09:40:21;99284.00;;;5.72;67.92
35908;BME280;22003;50.320;8.054;2024-03-08T09:42:48;99359.91;;;6.44;67.97
35908;BME280;22003;50.320;8.054;2024-03-08T09:45:13;99355.47;;;6.31;68.83
35908;BME280;22003;50.320;8.054;2024-03-08T09:47:43;99355.00;;;6.52;67.94
35908;BME280;22003;50.320;8.054;2024-03-08T09:50:09;99350.38;;;6.16;68.39
35908;BME280;22003;50.320;8.054;2024-03-08T09:52:38;99354.84;;;6.28;67.96
35908;BME280;22003;50.320;8.054;2024-03-08T09:55:05;99349.38;;;6.44;68.52
35908;BME280;22003;50.320;8.054;2024-03-08T09:57:33;99350.06;;;6.85;67.43
35908;BME280;22003;50.320;8.054;2024-03-08T09:59:59;99320.88;;;6.50;67.59
35908;BME280;22003;50.320;8.054;2024-03-08T10:02:24;99336.56;;;7.03;66.57
35908;BME280;22003;50.320;8.054;2024-03-08T10:04:51;99270.41;;;6.82;66.13
35908;BME280;22003;50.320;8.054;2024-03-08T10:07:18;99325.72;;;6.95;65.48
35908;BME280;22003;50.320;8.054;2024-03-08T10:09:44;99315.09;;;6.83;65.38
35908;BME280;22003;50.320;8.054;2024-03-08T10:12:15;99305.28;;;6.85;66.14
35908;BME280;22003;50.320;8.054;2024-03-08T10:14:41;99309.50;;;7.01;64.78
35908;BME280;22003;50.320;8.054;2024-03-08T10:17:07;99203.94;;;6.16;64.15
35908;BME280;22003;50.320;8.054;2024-03-08T10:19:33;99314.56;;;6.91;64.29
35908;BME280;22003;50.320;8.054;2024-03-08T10:21:59;99304.75;;;7.06;64.84
35908;BME280;22003;50.320;8.054;2024-03-08T10:24:24;99324.97;;;6.93;64.96
35908;BME280;22003;50.320;8.054;2024-03-08T10:26:58;99307.75;;;7.25;64.38
35908;BME280;22003;50.320;8.054;2024-03-08T10:29:23;99304.34;;;7.36;64.25
35908;BME280;22003;50.320;8.054;2024-03-08T10:31:49;99289.75;;;7.56;62.92
35908;BME280;22003;50.320;8.054;2024-03-08T10:34:15;99293.34;;;7.42;62.57
35908;BME280;22003;50.320;8.054;2024-03-08T10:36:41;99291.69;;;7.89;63.07
35908;BME280;22003;50.320;8.054;2024-03-08T10:39:35;99288.72;;;8.05;62.05
35908;BME280;22003;50.320;8.054;2024-03-08T10:42:03;99287.88;;;7.69;61.44
35908;BME280;22003;50.320;8.054;2024-03-08T10:49:26;99288.44;;;8.89;62.06
35908;BME280;22003;50.320;8.054;2024-03-08T10:51:56;99171.50;;;8.31;62.30
35908;BME280;22003;50.320;8.054;2024-03-08T10:54:22;99264.41;;;9.04;59.28
35908;BME280;22003;50.320;8.054;2024-03-08T10:56:50;99266.94;;;9.05;60.37
35908;BME280;22003;50.320;8.054;2024-03-08T10:59:16;99267.31;;;8.56;59.47
35908;BME280;22003;50.320;8.054;2024-03-08T11:01:42;99246.28;;;8.43;59.24
35908;BME280;22003;50.320;8.054;2024-03-08T11:04:07;99257.22;;;9.06;60.05
35908;BME280;22003;50.320;8.054;2024-03-08T11:09:01;99245.44;;;8.65;59.97
35908;BME280;22003;50.320;8.054;2024-03-08T11:11:30;99246.25;;;9.10;58.93
35908;BME280;22003;50.320;8.054;2024-03-08T11:13:57;99245.34;;;9.43;58.31
35908;BME280;22003;50.320;8.054;2024-03-08T11:18:58;99225.63;;;9.47;56.88
35908;BME280;22003;50.320;8.054;2024-03-08T11:21:32;99245.59;;;10.04;56.71
35908;BME280;22003;50.320;8.054;2024-03-08T11:24:08;99218.34;;;10.14;57.97
35908;BME280;22003;50.320;8.054;2024-03-08T11:26:37;99113.94;;;8.36;57.44
35908;BME280;22003;50.320;8.054;2024-03-08T11:34:41;99183.16;;;9.81;57.75
35908;BME280;22003;50.320;8.054;2024-03-08T11:37:15;99212.28;;;9.81;57.50
35908;BME280;22003;50.320;8.054;2024-03-08T11:39:48;99214.16;;;9.90;55.67
35908;BME280;22003;50.320;8.054;2024-03-08T11:42:14;99206.97;;;9.81;54.73
35908;BME280;22003;50.320;8.054;2024-03-08T11:44:42;99190.63;;;10.29;54.89
35908;BME280;22003;50.320;8.054;2024-03-08T11:47:10;99203.78;;;10.40;54.45
35908;BME280;22003;50.320;8.054;2024-03-08T11:49:36;99195.13;;;9.96;55.97
35908;BME280;22003;50.320;8.054;2024-03-08T11:52:02;99189.09;;;10.15;57.11
35908;BME280;22003;50.320;8.054;2024-03-08T11:54:28;99190.38;;;10.21;56.35
35908;BME280;22003;50.320;8.054;2024-03-08T11:56:55;99176.00;;;10.35;56.66
35908;BME280;22003;50.320;8.054;2024-03-08T11:59:26;99187.94;;;10.60;58.28
35908;BME280;22003;50.320;8.054;2024-03-08T12:02:03;99163.31;;;10.38;56.53
35908;BME280;22003;50.320;8.054;2024-03-08T12:04:29;99176.50;;;10.49;56.04
35908;BME280;22003;50.320;8.054;2024-03-08T12:06:54;99185.97;;;10.52;57.54
35908;BME280;22003;50.320;8.054;2024-03-08T12:09:20;99170.19;;;10.81;55.06
35908;BME280;22003;50.320;8.054;2024-03-08T12:11:48;99158.41;;;10.64;55.51
35908;BME280;22003;50.320;8.054;2024-03-08T12:14:14;99155.91;;;10.63;54.67
35908;BME280;22003;50.320;8.054;2024-03-08T12:16:39;99146.03;;;10.34;54.74
35908;BME280;22003;50.320;8.054;2024-03-08T12:19:05;99158.84;;;10.69;55.08
35908;BME280;22003;50.320;8.054;2024-03-08T12:21:31;99132.41;;;10.79;53.57
35908;BME280;22003;50.320;8.054;2024-03-08T12:24:05;99148.41;;;10.68;54.57
35908;BME280;22003;50.320;8.054;2024-03-08T12:26:36;99138.28;;;10.92;53.35
35908;BME280;22003;50.320;8.054;2024-03-08T12:29:18;99144.22;;;10.75;53.98
35908;BME280;22003;50.320;8.054;2024-03-08T12:31:50;99134.75;;;10.82;55.38
35908;BME280;22003;50.320;8.054;2024-03-08T12:34:16;99135.09;;;11.08;54.95
35908;BME280;22003;50.320;8.054;2024-03-08T12:36:48;99123.72;;;10.77;54.78
35908;BME280;22003;50.320;8.054;2024-03-08T12:39:18;99124.50;;;11.08;53.45
35908;BME280;22003;50.320;8.054;2024-03-08T12:41:48;99119.47;;;11.63;52.59
35908;BME280;22003;50.320;8.054;2024-03-08T12:44:17;99054.03;;;11.34;51.10
35908;BME280;22003;50.320;8.054;2024-03-08T12:46:44;99110.97;;;11.30;51.36
35908;BME280;22003;50.320;8.054;2024-03-08T12:49:10;99107.59;;;11.57;52.67
35908;BME280;22003;50.320;8.054;2024-03-08T12:51:37;99105.94;;;11.66;52.31
35908;BME280;22003;50.320;8.054;2024-03-08T12:54:04;99032.41;;;11.20;51.44
35908;BME280;22003;50.320;8.054;2024-03-08T12:56:31;99089.47;;;11.33;52.75
35908;BME280;22003;50.320;8.054;2024-03-08T12:58:59;99099.22;;;11.04;53.40
35908;BME280;22003;50.320;8.054;2024-03-08T13:01:25;99016.50;;;11.00;52.55
35908;BME280;22003;50.320;8.054;2024-03-08T13:03:52;99058.75;;;11.50;51.59
35908;BME280;22003;50.320;8.054;2024-03-08T13:06:18;99093.50;;;11.57;51.92
35908;BME280;22003;50.320;8.054;2024-03-08T13:08:47;99083.41;;;11.80;51.29
35908;BME280;22003;50.320;8.054;2024-03-08T13:11:13;99073.13;;;11.48;52.35
35908;BME280;22003;50.320;8.054;2024-03-08T13:13:42;99084.25;;;11.71;50.91
35908;BME280;22003;50.320;8.054;2024-03-08T13:16:09;99062.59;;;11.85;50.13
35908;BME280;22003;50.320;8.054;2024-03-08T13:18:38;99068.88;;;11.74;50.38